sensor_id;sensor_type;location;lat;lon;timestamp;P1;durP1;ratioP1;P2;durP2;ratioP2
78648;SDS011;67962;47.310;9.642;2023-03-31T00:01:48;10.32;;;5.28;;
78648;SDS011;67962;47.310;9.642;2023-03-31T00:04:16;10.55;;;5.07;;
78648;SDS011;67962;47.310;9.642;2023-03-31T00:06:42;12.15;;;5.50;;
78648;SDS011;67962;47.310;9.642;2023-03-31T00:09:12;17.05;;;5.65;;
78648;SDS011;67962;47.310;9.642;2023-03-31T00:11:48;8.18;;;4.82;;
78648;SDS011;67962;47.310;9.642;2023-03-31T00:14:15;14.52;;;5.45;;
78648;SDS011;67962;47.310;9.642;2023-03-31T00:16:43;12.48;;;5.40;;
78648;SDS011;67962;47.310;9.642;2023-03-31T00:19:09;8.60;;;5.38;;
78648;SDS011;67962;47.310;9.642;2023-03-31T00:21:42;9.48;;;5.43;;
78648;SDS011;67962;47.310;9.642;2023-03-31T00:24:08;8.63;;;4.63;;
78648;SDS011;67962;47.310;9.642;2023-03-31T00:26:35;13.55;;;4.90;;
78648;SDS011;67962;47.310;9.642;2023-03-31T00:29:02;11.88;;;4.65;;
78648;SDS011;67962;47.310;9.642;2023-03-31T00:31:29;9.30;;;5.10;;
78648;SDS011;67962;47.310;9.642;2023-03-31T00:33:56;12.25;;;5.35;;
78648;SDS011;67962;47.310;9.642;2023-03-31T00:36:23;8.23;;;5.05;;
78648;SDS011;67962;47.310;9.642;2023-03-31T00:38:53;9.48;;;5.15;;
78648;SDS011;67962;47.310;9.642;2023-03-31T00:41:20;9.68;;;5.28;;
78648;SDS011;67962;47.310;9.642;2023-03-31T00:51:49;10.48;;;5.28;;
78648;SDS011;67962;47.310;9.642;2023-03-31T00:54:18;9.52;;;5.32;;
78648;SDS011;67962;47.310;9.642;2023-03-31T00:56:46;11.27;;;5.10;;
78648;SDS011;67962;47.310;9.642;2023-03-31T00:59:17;10.93;;;5.28;;
78648;SDS011;67962;47.310;9.642;2023-03-31T01:01:44;9.05;;;5.05;;
78648;SDS011;67962;47.310;9.642;2023-03-31T01:04:12;8.15;;;4.80;;
78648;SDS011;67962;47.310;9.642;2023-03-31T01:06:43;12.60;;;5.05;;
78648;SDS011;67962;47.310;9.642;2023-03-31T01:09:22;9.07;;;4.70;;
78648;SDS011;67962;47.310;9.642;2023-03-31T01:11:49;10.77;;;5.10;;
78648;SDS011;67962;47.310;9.642;2023-03-31T01:14:14;10.25;;;4.70;;
78648;SDS011;67962;47.310;9.642;2023-03-31T01:16:40;10.68;;;4.90;;
78648;SDS011;67962;47.310;9.642;2023-03-31T01:19:07;12.02;;;5.53;;
78648;SDS011;67962;47.310;9.642;2023-03-31T01:24:58;8.32;;;4.80;;
78648;SDS011;67962;47.310;9.642;2023-03-31T01:47:31;17.83;;;5.20;;
78648;SDS011;67962;47.310;9.642;2023-03-31T01:50:07;21.77;;;6.07;;
78648;SDS011;67962;47.310;9.642;2023-03-31T01:52:46;10.10;;;4.90;;
78648;SDS011;67962;47.310;9.642;2023-03-31T01:55:34;10.95;;;5.43;;
78648;SDS011;67962;47.310;9.642;2023-03-31T01:58:09;8.35;;;4.82;;
78648;SDS011;67962;47.310;9.642;2023-03-31T02:00:44;9.80;;;4.85;;
78648;SDS011;67962;47.310;9.642;2023-03-31T02:03:21;11.20;;;5.18;;
78648;SDS011;67962;47.310;9.642;2023-03-31T02:05:54;14.27;;;5.30;;
78648;SDS011;67962;47.310;9.642;2023-03-31T02:08:24;12.15;;;5.10;;
78648;SDS011;67962;47.310;9.642;2023-03-31T02:11:12;8.43;;;4.88;;
78648;SDS011;67962;47.310;9.642;2023-03-31T02:13:39;9.50;;;4.78;;
78648;SDS011;67962;47.310;9.642;2023-03-31T02:16:12;9.98;;;5.03;;
78648;SDS011;67962;47.310;9.642;2023-03-31T02:18:45;9.95;;;4.90;;
78648;SDS011;67962;47.310;9.642;2023-03-31T02:21:14;10.05;;;4.90;;
78648;SDS011;67962;47.310;9.642;2023-03-31T02:23:40;13.15;;;5.72;;
78648;SDS011;67962;47.310;9.642;2023-03-31T02:28:39;10.60;;;5.43;;
78648;SDS011;67962;47.310;9.642;2023-03-31T02:34:00;11.20;;;5.38;;
78648;SDS011;67962;47.310;9.642;2023-03-31T02:36:26;10.93;;;5.30;;
78648;SDS011;67962;47.310;9.642;2023-03-31T02:38:58;9.13;;;5.40;;
78648;SDS011;67962;47.310;9.642;2023-03-31T02:41:33;9.40;;;6.05;;
78648;SDS011;67962;47.310;9.642;2023-03-31T02:44:00;10.77;;;5.60;;
78648;SDS011;67962;47.310;9.642;2023-03-31T02:46:26;8.48;;;5.07;;
78648;SDS011;67962;47.310;9.642;2023-03-31T02:48:56;13.02;;;4.70;;
78648;SDS011;67962;47.310;9.642;2023-03-31T02:54:19;13.02;;;5.05;;
78648;SDS011;67962;47.310;9.642;2023-03-31T03:10:33;10.80;;;5.10;;
78648;SDS011;67962;47.310;9.642;2023-03-31T03:13:08;10.85;;;5.00;;
78648;SDS011;67962;47.310;9.642;2023-03-31T03:15:55;11.82;;;5.43;;
78648;SDS011;67962;47.310;9.642;2023-03-31T03:18:25;9.00;;;5.05;;
78648;SDS011;67962;47.310;9.642;2023-03-31T03:20:51;8.50;;;5.53;;
78648;SDS011;67962;47.310;9.642;2023-03-31T03:23:17;11.77;;;5.35;;
78648;SDS011;67962;47.310;9.642;2023-03-31T03:25:43;14.13;;;5.28;;
78648;SDS011;67962;47.310;9.642;2023-03-31T03:28:10;14.75;;;5.65;;
78648;SDS011;67962;47.310;9.642;2023-03-31T03:30:35;10.93;;;5.35;;
78648;SDS011;67962;47.310;9.642;2023-03-31T03:33:01;12.52;;;5.10;;
78648;SDS011;67962;47.310;9.642;2023-03-31T03:35:30;11.63;;;5.82;;
78648;SDS011;67962;47.310;9.642;2023-03-31T03:37:56;17.23;;;5.70;;
78648;SDS011;67962;47.310;9.642;2023-03-31T03:40:22;13.18;;;5.40;;
78648;SDS011;67962;47.310;9.642;2023-03-31T03:42:47;9.80;;;5.70;;
78648;SDS011;67962;47.310;9.642;2023-03-31T03:45:13;10.23;;;5.60;;
78648;SDS011;67962;47.310;9.642;2023-03-31T03:47:39;9.48;;;5.78;;
78648;SDS011;67962;47.310;9.642;2023-03-31T03:50:05;9.95;;;5.65;;
78648;SDS011;67962;47.310;9.642;2023-03-31T03:52:31;11.05;;;5.28;;
78648;SDS011;67962;47.310;9.642;2023-03-31T03:54:57;12.27;;;6.13;;
78648;SDS011;67962;47.310;9.642;2023-03-31T03:57:22;13.82;;;5.65;;
78648;SDS011;67962;47.310;9.642;2023-03-31T03:59:48;14.45;;;5.80;;
78648;SDS011;67962;47.310;9.642;2023-03-31T04:02:14;12.50;;;6.18;;
78648;SDS011;67962;47.310;9.642;2023-03-31T04:04:39;13.05;;;6.05;;
78648;SDS011;67962;47.310;9.642;2023-03-31T04:07:05;11.35;;;5.43;;
78648;SDS011;67962;47.310;9.642;2023-03-31T04:09:31;12.52;;;5.35;;
78648;SDS011;67962;47.310;9.642;2023-03-31T04:11:57;11.77;;;5.78;;
78648;SDS011;67962;47.310;9.642;2023-03-31T04:14:22;7.57;;;5.18;;
78648;SDS011;67962;47.310;9.642;2023-03-31T04:16:49;11.27;;;5.45;;
78648;SDS011;67962;47.310;9.642;2023-03-31T04:19:15;11.38;;;5.55;;
78648;SDS011;67962;47.310;9.642;2023-03-31T04:21:42;11.05;;;5.30;;
78648;SDS011;67962;47.310;9.642;2023-03-31T04:24:14;16.30;;;5.47;;
78648;SDS011;67962;47.310;9.642;2023-03-31T04:26:45;18.65;;;11.95;;
78648;SDS011;67962;47.310;9.642;2023-03-31T04:29:15;17.25;;;9.35;;
78648;SDS011;67962;47.310;9.642;2023-03-31T04:31:41;24.63;;;12.88;;
78648;SDS011;67962;47.310;9.642;2023-03-31T04:34:08;23.00;;;11.07;;
78648;SDS011;67962;47.310;9.642;2023-03-31T04:36:44;18.35;;;10.27;;
78648;SDS011;67962;47.310;9.642;2023-03-31T04:39:12;15.80;;;7.72;;
78648;SDS011;67962;47.310;9.642;2023-03-31T04:41:42;14.50;;;8.45;;
78648;SDS011;67962;47.310;9.642;2023-03-31T04:44:08;13.27;;;7.10;;
78648;SDS011;67962;47.310;9.642;2023-03-31T04:46:34;15.98;;;6.93;;
78648;SDS011;67962;47.310;9.642;2023-03-31T04:49:00;13.13;;;6.05;;
78648;SDS011;67962;47.310;9.642;2023-03-31T04:51:27;10.55;;;5.93;;
78648;SDS011;67962;47.310;9.642;2023-03-31T04:53:52;13.02;;;6.07;;
78648;SDS011;67962;47.310;9.642;2023-03-31T04:56:18;11.18;;;5.22;;
78648;SDS011;67962;47.310;9.642;2023-03-31T04:58:44;10.52;;;5.72;;
78648;SDS011;67962;47.310;9.642;2023-03-31T05:01:10;12.32;;;6.00;;
78648;SDS011;67962;47.310;9.642;2023-03-31T05:03:42;12.48;;;5.80;;
78648;SDS011;67962;47.310;9.642;2023-03-31T05:06:08;11.73;;;5.72;;
78648;SDS011;67962;47.310;9.642;2023-03-31T05:08:34;14.77;;;5.90;;
78648;SDS011;67962;47.310;9.642;2023-03-31T05:11:01;15.02;;;5.97;;
78648;SDS011;67962;47.310;9.642;2023-03-31T05:13:27;10.48;;;5.60;;
78648;SDS011;67962;47.310;9.642;2023-03-31T05:15:53;9.82;;;5.60;;
78648;SDS011;67962;47.310;9.642;2023-03-31T05:18:19;15.75;;;5.80;;
78648;SDS011;67962;47.310;9.642;2023-03-31T05:20:45;11.40;;;5.80;;
78648;SDS011;67962;47.310;9.642;2023-03-31T05:23:12;11.70;;;6.47;;
78648;SDS011;67962;47.310;9.642;2023-03-31T05:25:38;14.32;;;6.75;;
78648;SDS011;67962;47.310;9.642;2023-03-31T05:28:03;15.27;;;6.53;;
78648;SDS011;67962;47.310;9.642;2023-03-31T05:30:30;11.80;;;5.38;;
78648;SDS011;67962;47.310;9.642;2023-03-31T05:32:55;7.22;;;4.22;;
78648;SDS011;67962;47.310;9.642;2023-03-31T05:35:22;10.30;;;4.65;;
78648;SDS011;67962;47.310;9.642;2023-03-31T05:37:47;12.63;;;4.50;;
78648;SDS011;67962;47.310;9.642;2023-03-31T05:40:13;9.07;;;4.32;;
78648;SDS011;67962;47.310;9.642;2023-03-31T05:42:39;9.25;;;4.32;;
78648;SDS011;67962;47.310;9.642;2023-03-31T05:45:06;11.50;;;4.57;;
78648;SDS011;67962;47.310;9.642;2023-03-31T05:47:32;8.43;;;4.07;;
78648;SDS011;67962;47.310;9.642;2023-03-31T05:49:57;10.05;;;4.28;;
78648;SDS011;67962;47.310;9.642;2023-03-31T05:52:23;7.75;;;3.83;;
78648;SDS011;67962;47.310;9.642;2023-03-31T05:54:49;9.10;;;3.97;;
78648;SDS011;67962;47.310;9.642;2023-03-31T05:57:15;9.07;;;4.30;;
78648;SDS011;67962;47.310;9.642;2023-03-31T05:59:40;9.50;;;4.63;;
78648;SDS011;67962;47.310;9.642;2023-03-31T06:02:06;9.68;;;4.15;;
78648;SDS011;67962;47.310;9.642;2023-03-31T06:04:36;6.18;;;3.80;;
78648;SDS011;67962;47.310;9.642;2023-03-31T06:07:02;8.23;;;3.55;;
78648;SDS011;67962;47.310;9.642;2023-03-31T06:09:29;7.35;;;3.85;;
78648;SDS011;67962;47.310;9.642;2023-03-31T06:11:55;9.32;;;4.15;;
78648;SDS011;67962;47.310;9.642;2023-03-31T06:14:21;5.72;;;3.25;;
78648;SDS011;67962;47.310;9.642;2023-03-31T06:16:47;8.60;;;3.17;;
78648;SDS011;67962;47.310;9.642;2023-03-31T06:19:13;7.88;;;3.10;;
78648;SDS011;67962;47.310;9.642;2023-03-31T06:21:39;6.03;;;3.15;;
78648;SDS011;67962;47.310;9.642;2023-03-31T06:24:05;7.47;;;2.92;;
78648;SDS011;67962;47.310;9.642;2023-03-31T06:26:32;12.40;;;2.80;;
78648;SDS011;67962;47.310;9.642;2023-03-31T06:28:58;6.22;;;3.03;;
78648;SDS011;67962;47.310;9.642;2023-03-31T06:31:24;5.20;;;2.95;;
78648;SDS011;67962;47.310;9.642;2023-03-31T06:33:50;6.43;;;3.22;;
78648;SDS011;67962;47.310;9.642;2023-03-31T06:36:17;6.93;;;2.67;;
78648;SDS011;67962;47.310;9.642;2023-03-31T06:38:45;8.77;;;3.00;;
78648;SDS011;67962;47.310;9.642;2023-03-31T06:41:12;5.78;;;2.92;;
78648;SDS011;67962;47.310;9.642;2023-03-31T06:43:39;7.20;;;3.05;;
78648;SDS011;67962;47.310;9.642;2023-03-31T06:46:05;10.27;;;3.55;;
78648;SDS011;67962;47.310;9.642;2023-03-31T06:48:31;6.78;;;3.00;;
78648;SDS011;67962;47.310;9.642;2023-03-31T06:51:00;8.50;;;3.03;;
78648;SDS011;67962;47.310;9.642;2023-03-31T06:53:28;8.35;;;3.53;;
78648;SDS011;67962;47.310;9.642;2023-03-31T06:55:53;15.07;;;9.60;;
78648;SDS011;67962;47.310;9.642;2023-03-31T06:58:19;16.77;;;9.85;;
78648;SDS011;67962;47.310;9.642;2023-03-31T07:00:45;12.38;;;5.10;;
78648;SDS011;67962;47.310;9.642;2023-03-31T07:03:11;8.43;;;4.22;;
78648;SDS011;67962;47.310;9.642;2023-03-31T07:05:37;6.32;;;3.50;;
78648;SDS011;67962;47.310;9.642;2023-03-31T07:08:03;6.57;;;3.45;;
78648;SDS011;67962;47.310;9.642;2023-03-31T07:10:30;9.50;;;3.50;;
78648;SDS011;67962;47.310;9.642;2023-03-31T07:12:57;10.73;;;5.88;;
78648;SDS011;67962;47.310;9.642;2023-03-31T07:15:23;10.23;;;3.53;;
78648;SDS011;67962;47.310;9.642;2023-03-31T07:17:49;8.23;;;2.35;;
78648;SDS011;67962;47.310;9.642;2023-03-31T07:20:18;5.55;;;2.78;;
78648;SDS011;67962;47.310;9.642;2023-03-31T07:22:45;6.20;;;2.60;;
78648;SDS011;67962;47.310;9.642;2023-03-31T07:25:12;4.68;;;2.22;;
78648;SDS011;67962;47.310;9.642;2023-03-31T07:27:40;3.47;;;1.70;;
78648;SDS011;67962;47.310;9.642;2023-03-31T07:30:07;5.30;;;1.95;;
78648;SDS011;67962;47.310;9.642;2023-03-31T07:32:38;2.20;;;1.50;;
78648;SDS011;67962;47.310;9.642;2023-03-31T07:35:05;6.53;;;1.80;;
78648;SDS011;67962;47.310;9.642;2023-03-31T07:37:40;3.40;;;1.60;;
78648;SDS011;67962;47.310;9.642;2023-03-31T07:40:08;8.43;;;2.53;;
78648;SDS011;67962;47.310;9.642;2023-03-31T07:42:35;5.60;;;2.10;;
78648;SDS011;67962;47.310;9.642;2023-03-31T07:45:01;5.28;;;2.10;;
78648;SDS011;67962;47.310;9.642;2023-03-31T07:47:30;8.85;;;2.10;;
78648;SDS011;67962;47.310;9.642;2023-03-31T07:49:56;11.00;;;2.35;;
78648;SDS011;67962;47.310;9.642;2023-03-31T07:52:22;8.45;;;2.45;;
78648;SDS011;67962;47.310;9.642;2023-03-31T07:54:48;9.30;;;2.50;;
78648;SDS011;67962;47.310;9.642;2023-03-31T07:57:14;6.70;;;2.58;;
78648;SDS011;67962;47.310;9.642;2023-03-31T07:59:41;7.60;;;4.00;;
78648;SDS011;67962;47.310;9.642;2023-03-31T08:02:10;9.13;;;3.08;;
78648;SDS011;67962;47.310;9.642;2023-03-31T08:04:37;5.30;;;3.08;;
78648;SDS011;67962;47.310;9.642;2023-03-31T08:07:06;5.07;;;2.67;;
78648;SDS011;67962;47.310;9.642;2023-03-31T08:09:35;7.57;;;4.40;;
78648;SDS011;67962;47.310;9.642;2023-03-31T08:12:01;8.52;;;4.65;;
78648;SDS011;67962;47.310;9.642;2023-03-31T08:14:27;6.05;;;3.47;;
78648;SDS011;67962;47.310;9.642;2023-03-31T08:16:53;7.90;;;4.40;;
78648;SDS011;67962;47.310;9.642;2023-03-31T08:19:19;8.15;;;5.10;;
78648;SDS011;67962;47.310;9.642;2023-03-31T08:21:46;7.88;;;5.10;;
78648;SDS011;67962;47.310;9.642;2023-03-31T08:24:12;7.13;;;4.88;;
78648;SDS011;67962;47.310;9.642;2023-03-31T08:26:39;7.28;;;4.97;;
78648;SDS011;67962;47.310;9.642;2023-03-31T08:29:05;8.95;;;4.50;;
78648;SDS011;67962;47.310;9.642;2023-03-31T08:31:31;6.03;;;4.35;;
78648;SDS011;67962;47.310;9.642;2023-03-31T08:33:57;4.38;;;2.90;;
78648;SDS011;67962;47.310;9.642;2023-03-31T08:36:23;6.35;;;3.28;;
78648;SDS011;67962;47.310;9.642;2023-03-31T08:38:49;4.07;;;2.50;;
78648;SDS011;67962;47.310;9.642;2023-03-31T08:44:14;5.47;;;3.40;;
78648;SDS011;67962;47.310;9.642;2023-03-31T08:46:41;4.57;;;3.25;;
78648;SDS011;67962;47.310;9.642;2023-03-31T08:49:08;5.00;;;3.20;;
78648;SDS011;67962;47.310;9.642;2023-03-31T08:51:41;6.05;;;3.45;;
78648;SDS011;67962;47.310;9.642;2023-03-31T08:54:17;6.05;;;3.15;;
78648;SDS011;67962;47.310;9.642;2023-03-31T08:56:53;4.85;;;2.67;;
78648;SDS011;67962;47.310;9.642;2023-03-31T08:59:26;5.57;;;2.80;;
78648;SDS011;67962;47.310;9.642;2023-03-31T09:12:44;6.07;;;3.35;;
78648;SDS011;67962;47.310;9.642;2023-03-31T09:15:43;5.82;;;3.10;;
78648;SDS011;67962;47.310;9.642;2023-03-31T09:18:31;8.55;;;3.35;;
78648;SDS011;67962;47.310;9.642;2023-03-31T09:23:47;4.72;;;3.10;;
78648;SDS011;67962;47.310;9.642;2023-03-31T09:26:26;5.70;;;3.40;;
78648;SDS011;67962;47.310;9.642;2023-03-31T09:28:54;5.75;;;3.63;;
78648;SDS011;67962;47.310;9.642;2023-03-31T09:31:23;8.18;;;3.63;;
78648;SDS011;67962;47.310;9.642;2023-03-31T09:33:50;6.97;;;3.63;;
78648;SDS011;67962;47.310;9.642;2023-03-31T09:36:20;8.63;;;3.90;;
78648;SDS011;67962;47.310;9.642;2023-03-31T09:38:46;5.95;;;3.58;;
78648;SDS011;67962;47.310;9.642;2023-03-31T09:41:13;5.70;;;3.78;;
78648;SDS011;67962;47.310;9.642;2023-03-31T09:43:41;7.10;;;3.63;;
78648;SDS011;67962;47.310;9.642;2023-03-31T09:51:45;6.55;;;4.30;;
78648;SDS011;67962;47.310;9.642;2023-03-31T09:54:26;6.82;;;4.15;;
78648;SDS011;67962;47.310;9.642;2023-03-31T09:56:58;8.23;;;4.45;;
78648;SDS011;67962;47.310;9.642;2023-03-31T09:59:33;7.65;;;3.90;;
78648;SDS011;67962;47.310;9.642;2023-03-31T10:02:04;5.50;;;3.67;;
78648;SDS011;67962;47.310;9.642;2023-03-31T10:04:50;7.00;;;3.60;;
78648;SDS011;67962;47.310;9.642;2023-03-31T10:07:20;5.55;;;3.90;;
78648;SDS011;67962;47.310;9.642;2023-03-31T10:09:47;8.95;;;4.90;;
78648;SDS011;67962;47.310;9.642;2023-03-31T10:12:18;9.80;;;4.40;;
78648;SDS011;67962;47.310;9.642;2023-03-31T10:14:53;5.85;;;3.90;;
78648;SDS011;67962;47.310;9.642;2023-03-31T10:17:27;6.22;;;3.75;;
78648;SDS011;67962;47.310;9.642;2023-03-31T10:19:53;10.35;;;3.45;;
78648;SDS011;67962;47.310;9.642;2023-03-31T10:22:30;4.40;;;2.97;;
78648;SDS011;67962;47.310;9.642;2023-03-31T10:25:07;5.05;;;3.25;;
78648;SDS011;67962;47.310;9.642;2023-03-31T10:27:39;9.93;;;3.22;;
78648;SDS011;67962;47.310;9.642;2023-03-31T10:30:08;5.13;;;3.00;;
78648;SDS011;67962;47.310;9.642;2023-03-31T10:32:40;8.80;;;3.30;;
78648;SDS011;67962;47.310;9.642;2023-03-31T10:35:18;5.03;;;3.22;;
78648;SDS011;67962;47.310;9.642;2023-03-31T10:37:47;5.85;;;3.38;;
78648;SDS011;67962;47.310;9.642;2023-03-31T10:40:18;10.18;;;6.00;;
78648;SDS011;67962;47.310;9.642;2023-03-31T10:42:57;6.53;;;3.25;;
78648;SDS011;67962;47.310;9.642;2023-03-31T10:45:28;8.07;;;2.90;;
78648;SDS011;67962;47.310;9.642;2023-03-31T10:47:56;5.82;;;2.85;;
78648;SDS011;67962;47.310;9.642;2023-03-31T10:50:28;7.45;;;3.85;;
78648;SDS011;67962;47.310;9.642;2023-03-31T10:53:03;5.95;;;4.10;;
78648;SDS011;67962;47.310;9.642;2023-03-31T10:55:35;8.38;;;5.05;;
78648;SDS011;67962;47.310;9.642;2023-03-31T10:58:16;5.05;;;3.08;;
78648;SDS011;67962;47.310;9.642;2023-03-31T11:22:04;4.38;;;2.60;;
78648;SDS011;67962;47.310;9.642;2023-03-31T11:41:10;3.75;;;2.30;;
78648;SDS011;67962;47.310;9.642;2023-03-31T11:43:49;3.38;;;2.20;;
78648;SDS011;67962;47.310;9.642;2023-03-31T11:46:22;7.15;;;2.70;;
78648;SDS011;67962;47.310;9.642;2023-03-31T11:49:00;5.82;;;2.42;;
78648;SDS011;67962;47.310;9.642;2023-03-31T11:51:50;4.30;;;2.50;;
78648;SDS011;67962;47.310;9.642;2023-03-31T11:57:38;3.42;;;2.15;;
78648;SDS011;67962;47.310;9.642;2023-03-31T12:02:45;4.35;;;2.55;;
78648;SDS011;67962;47.310;9.642;2023-03-31T12:05:22;3.80;;;2.30;;
78648;SDS011;67962;47.310;9.642;2023-03-31T12:07:58;7.07;;;2.45;;
78648;SDS011;67962;47.310;9.642;2023-03-31T12:10:38;4.78;;;2.05;;
78648;SDS011;67962;47.310;9.642;2023-03-31T12:16:10;5.25;;;2.30;;
78648;SDS011;67962;47.310;9.642;2023-03-31T12:21:55;3.33;;;2.05;;
78648;SDS011;67962;47.310;9.642;2023-03-31T12:24:36;3.17;;;2.38;;
78648;SDS011;67962;47.310;9.642;2023-03-31T12:28:02;4.70;;;2.65;;
78648;SDS011;67962;47.310;9.642;2023-03-31T12:32:31;4.32;;;2.33;;
78648;SDS011;67962;47.310;9.642;2023-03-31T12:35:02;4.53;;;2.42;;
78648;SDS011;67962;47.310;9.642;2023-03-31T12:41:10;3.72;;;2.33;;
78648;SDS011;67962;47.310;9.642;2023-03-31T12:46:38;3.47;;;2.22;;
78648;SDS011;67962;47.310;9.642;2023-03-31T12:52:01;4.32;;;2.40;;
78648;SDS011;67962;47.310;9.642;2023-03-31T12:57:30;5.22;;;2.20;;
78648;SDS011;67962;47.310;9.642;2023-03-31T13:00:19;3.65;;;2.42;;
78648;SDS011;67962;47.310;9.642;2023-03-31T13:02:45;3.63;;;2.00;;
78648;SDS011;67962;47.310;9.642;2023-03-31T13:08:06;4.47;;;2.33;;
78648;SDS011;67962;47.310;9.642;2023-03-31T13:10:33;4.18;;;2.35;;
78648;SDS011;67962;47.310;9.642;2023-03-31T13:13:33;6.47;;;2.42;;
78648;SDS011;67962;47.310;9.642;2023-03-31T13:15:59;9.23;;;3.60;;
78648;SDS011;67962;47.310;9.642;2023-03-31T13:18:26;6.88;;;2.00;;
78648;SDS011;67962;47.310;9.642;2023-03-31T13:21:01;3.72;;;2.03;;
78648;SDS011;67962;47.310;9.642;2023-03-31T13:23:30;4.72;;;2.00;;
78648;SDS011;67962;47.310;9.642;2023-03-31T13:25:59;7.13;;;2.15;;
78648;SDS011;67962;47.310;9.642;2023-03-31T13:28:26;4.00;;;2.20;;
78648;SDS011;67962;47.310;9.642;2023-03-31T13:31:13;8.70;;;1.83;;
78648;SDS011;67962;47.310;9.642;2023-03-31T13:44:36;6.90;;;2.30;;
78648;SDS011;67962;47.310;9.642;2023-03-31T13:58:57;2.80;;;1.52;;
78648;SDS011;67962;47.310;9.642;2023-03-31T14:07:33;4.18;;;1.73;;
78648;SDS011;67962;47.310;9.642;2023-03-31T14:15:40;5.00;;;2.00;;
78648;SDS011;67962;47.310;9.642;2023-03-31T14:18:06;6.03;;;2.20;;
78648;SDS011;67962;47.310;9.642;2023-03-31T14:24:01;6.15;;;1.90;;
78648;SDS011;67962;47.310;9.642;2023-03-31T14:32:17;2.55;;;1.02;;
78648;SDS011;67962;47.310;9.642;2023-03-31T14:37:47;1.90;;;0.75;;
78648;SDS011;67962;47.310;9.642;2023-03-31T14:40:15;1.02;;;0.70;;
78648;SDS011;67962;47.310;9.642;2023-03-31T14:42:42;1.65;;;1.00;;
78648;SDS011;67962;47.310;9.642;2023-03-31T14:47:52;3.00;;;1.00;;
78648;SDS011;67962;47.310;9.642;2023-03-31T14:50:26;1.55;;;0.50;;
78648;SDS011;67962;47.310;9.642;2023-03-31T14:52:55;3.25;;;0.82;;
78648;SDS011;67962;47.310;9.642;2023-03-31T14:55:22;4.00;;;1.42;;
78648;SDS011;67962;47.310;9.642;2023-03-31T14:57:51;1.98;;;0.70;;
78648;SDS011;67962;47.310;9.642;2023-03-31T15:00:27;1.33;;;0.70;;
78648;SDS011;67962;47.310;9.642;2023-03-31T15:02:55;1.38;;;0.60;;
78648;SDS011;67962;47.310;9.642;2023-03-31T15:07:57;1.05;;;0.60;;
78648;SDS011;67962;47.310;9.642;2023-03-31T15:10:23;1.02;;;0.73;;
78648;SDS011;67962;47.310;9.642;2023-03-31T15:12:53;1.27;;;0.57;;
78648;SDS011;67962;47.310;9.642;2023-03-31T15:15:19;1.60;;;0.55;;
78648;SDS011;67962;47.310;9.642;2023-03-31T15:17:45;1.42;;;0.65;;
78648;SDS011;67962;47.310;9.642;2023-03-31T15:22:55;2.50;;;0.63;;
78648;SDS011;67962;47.310;9.642;2023-03-31T15:25:26;3.42;;;0.75;;
78648;SDS011;67962;47.310;9.642;2023-03-31T15:27:59;2.05;;;0.88;;
78648;SDS011;67962;47.310;9.642;2023-03-31T15:30:30;3.67;;;0.93;;
78648;SDS011;67962;47.310;9.642;2023-03-31T15:32:56;4.53;;;0.68;;
78648;SDS011;67962;47.310;9.642;2023-03-31T15:35:30;2.65;;;1.20;;
78648;SDS011;67962;47.310;9.642;2023-03-31T15:37:58;3.17;;;0.80;;
78648;SDS011;67962;47.310;9.642;2023-03-31T15:40:27;3.83;;;1.27;;
78648;SDS011;67962;47.310;9.642;2023-03-31T15:42:58;2.63;;;0.73;;
78648;SDS011;67962;47.310;9.642;2023-03-31T15:45:43;1.75;;;0.47;;
78648;SDS011;67962;47.310;9.642;2023-03-31T15:50:43;1.90;;;0.73;;
78648;SDS011;67962;47.310;9.642;2023-03-31T15:53:30;3.63;;;0.70;;
78648;SDS011;67962;47.310;9.642;2023-03-31T15:55:57;2.50;;;0.90;;
78648;SDS011;67962;47.310;9.642;2023-03-31T15:58:46;5.90;;;0.90;;
78648;SDS011;67962;47.310;9.642;2023-03-31T16:01:18;2.05;;;1.00;;
78648;SDS011;67962;47.310;9.642;2023-03-31T16:03:44;2.15;;;0.70;;
78648;SDS011;67962;47.310;9.642;2023-03-31T16:09:05;3.35;;;1.02;;
78648;SDS011;67962;47.310;9.642;2023-03-31T16:11:35;5.30;;;1.00;;
78648;SDS011;67962;47.310;9.642;2023-03-31T16:14:07;3.15;;;0.70;;
78648;SDS011;67962;47.310;9.642;2023-03-31T16:16:39;2.33;;;0.60;;
78648;SDS011;67962;47.310;9.642;2023-03-31T16:19:11;2.63;;;0.90;;
78648;SDS011;67962;47.310;9.642;2023-03-31T16:21:39;3.95;;;0.98;;
78648;SDS011;67962;47.310;9.642;2023-03-31T16:24:14;3.25;;;0.88;;
78648;SDS011;67962;47.310;9.642;2023-03-31T16:26:40;3.17;;;0.90;;
78648;SDS011;67962;47.310;9.642;2023-03-31T16:29:06;5.35;;;1.00;;
78648;SDS011;67962;47.310;9.642;2023-03-31T16:31:41;5.35;;;0.98;;
78648;SDS011;67962;47.310;9.642;2023-03-31T16:34:07;3.38;;;0.90;;
78648;SDS011;67962;47.310;9.642;2023-03-31T16:36:35;6.80;;;0.90;;
78648;SDS011;67962;47.310;9.642;2023-03-31T16:39:01;2.53;;;0.60;;
78648;SDS011;67962;47.310;9.642;2023-03-31T16:41:30;1.67;;;0.60;;
78648;SDS011;67962;47.310;9.642;2023-03-31T16:43:57;2.28;;;0.60;;
78648;SDS011;67962;47.310;9.642;2023-03-31T16:46:23;1.80;;;0.73;;
78648;SDS011;67962;47.310;9.642;2023-03-31T16:48:49;2.95;;;0.65;;
78648;SDS011;67962;47.310;9.642;2023-03-31T16:51:16;1.73;;;0.70;;
78648;SDS011;67962;47.310;9.642;2023-03-31T16:53:42;2.33;;;0.60;;
78648;SDS011;67962;47.310;9.642;2023-03-31T16:56:08;2.35;;;0.60;;
78648;SDS011;67962;47.310;9.642;2023-03-31T16:58:36;0.63;;;0.35;;
78648;SDS011;67962;47.310;9.642;2023-03-31T17:01:03;2.20;;;0.52;;
78648;SDS011;67962;47.310;9.642;2023-03-31T17:03:31;3.70;;;0.70;;
78648;SDS011;67962;47.310;9.642;2023-03-31T17:05:57;1.95;;;0.60;;
78648;SDS011;67962;47.310;9.642;2023-03-31T17:08:29;4.53;;;0.82;;
78648;SDS011;67962;47.310;9.642;2023-03-31T17:11:06;2.45;;;0.80;;
78648;SDS011;67962;47.310;9.642;2023-03-31T17:13:35;2.53;;;0.68;;
78648;SDS011;67962;47.310;9.642;2023-03-31T17:16:01;2.05;;;0.90;;
78648;SDS011;67962;47.310;9.642;2023-03-31T17:18:29;1.70;;;0.63;;
78648;SDS011;67962;47.310;9.642;2023-03-31T17:21:01;1.83;;;0.60;;
78648;SDS011;67962;47.310;9.642;2023-03-31T17:23:37;2.35;;;0.85;;
78648;SDS011;67962;47.310;9.642;2023-03-31T17:26:05;1.67;;;0.55;;
78648;SDS011;67962;47.310;9.642;2023-03-31T17:28:33;4.18;;;0.55;;
78648;SDS011;67962;47.310;9.642;2023-03-31T17:31:00;5.85;;;0.77;;
78648;SDS011;67962;47.310;9.642;2023-03-31T17:33:26;5.13;;;0.77;;
78648;SDS011;67962;47.310;9.642;2023-03-31T17:35:56;2.80;;;0.82;;
78648;SDS011;67962;47.310;9.642;2023-03-31T17:38:23;7.68;;;1.58;;
78648;SDS011;67962;47.310;9.642;2023-03-31T17:40:49;2.53;;;1.08;;
78648;SDS011;67962;47.310;9.642;2023-03-31T17:43:15;4.45;;;1.20;;
78648;SDS011;67962;47.310;9.642;2023-03-31T17:45:43;3.25;;;1.10;;
78648;SDS011;67962;47.310;9.642;2023-03-31T17:48:08;5.95;;;2.30;;
78648;SDS011;67962;47.310;9.642;2023-03-31T17:50:35;3.03;;;1.15;;
78648;SDS011;67962;47.310;9.642;2023-03-31T17:53:02;3.30;;;1.52;;
78648;SDS011;67962;47.310;9.642;2023-03-31T17:55:33;4.05;;;2.60;;
78648;SDS011;67962;47.310;9.642;2023-03-31T17:58:03;3.83;;;2.30;;
78648;SDS011;67962;47.310;9.642;2023-03-31T18:00:30;2.95;;;0.80;;
78648;SDS011;67962;47.310;9.642;2023-03-31T18:02:56;2.08;;;0.88;;
78648;SDS011;67962;47.310;9.642;2023-03-31T18:05:22;4.28;;;0.80;;
78648;SDS011;67962;47.310;9.642;2023-03-31T18:07:48;2.03;;;0.68;;
78648;SDS011;67962;47.310;9.642;2023-03-31T18:10:14;4.00;;;0.65;;
78648;SDS011;67962;47.310;9.642;2023-03-31T18:12:42;2.92;;;0.90;;
78648;SDS011;67962;47.310;9.642;2023-03-31T18:15:08;3.88;;;0.70;;
78648;SDS011;67962;47.310;9.642;2023-03-31T18:17:35;1.15;;;0.70;;
78648;SDS011;67962;47.310;9.642;2023-03-31T18:20:01;2.05;;;0.90;;